METAR Data
IDs: Format: Raw Decoded Include TAF

Data at: 1507 UTC 10 Aug 2022

KSMF 101453Z 16009KT 10SM CLR 18/13 A3002 RMK AO2 SLP165 T01780133 53013
KSMF 101353Z 14007KT 10SM FEW070 17/13 A3001 RMK AO2 SLP161 T01670128
KSMF 101253Z 15008KT 10SM FEW070 17/13 A2999 RMK AO2 SLP154 T01670128
KSMF 101153Z 14009KT 10SM CLR 17/13 A2998 RMK AO2 SLP152 T01670128 10194 20167 53003
KSMF 101053Z 14008KT 10SM CLR 17/13 A2998 RMK AO2 SLP150 T01720128
KSMF 100953Z 15010KT 10SM CLR 18/12 A2997 RMK AO2 SLP148 T01780122
KSMF 100853Z 15007KT 10SM CLR 18/12 A2997 RMK AO2 SLP149 T01780122 52007
KSMF 100753Z 14008KT 10SM CLR 18/12 A2997 RMK AO2 SLP146 T01830122 403440183
KSMF 100653Z 17010KT 10SM CLR 18/12 A2996 RMK AO2 SLP144 T01830122
KSMF 100553Z 17010KT 10SM CLR 19/12 A2995 RMK AO2 SLP142 T01940122 10333 20194 53020
KSMF 100453Z 17013KT 10SM CLR 21/12 A2994 RMK AO2 SLP137 T02110117
KSMF 100353Z 17011KT 10SM CLR 23/11 A2991 RMK AO2 SLP126 T02280111
KSMF 100253Z 17012KT 10SM CLR 26/10 A2989 RMK AO2 SLP122 T02560100 53010
KSMF 100153Z 18014KT 10SM CLR 30/10 A2987 RMK AO2 SLP115 T03000100
KSMF 100053Z 18014KT 10SM CLR 32/09 A2987 RMK AO2 SLP114 T03170089
KSMF 092353Z 19014KT 10SM FEW180 33/09 A2986 RMK AO2 SLP112 T03330094 10344 20261 56012
KSMF 092253Z 17011KT 10SM FEW180 34/08 A2987 RMK AO2 SLP114 T03390078
KSMF 092153Z 18012G20KT 10SM FEW180 34/08 A2989 RMK AO2 SLP120 T03390078
KSMF 092053Z 19011KT 10SM SCT200 33/09 A2990 RMK AO2 SLP124 T03280089 58010
KSMF 091953Z 19007KT 10SM SCT200 SCT250 31/09 A2992 RMK AO2 SLP130 T03060089
KSMF 091853Z 16008G16KT 10SM SCT200 SCT250 29/12 A2993 RMK AO2 SLP133 T02890117
KSMF 091753Z 15010KT 10SM SCT170 BKN250 26/13 A2993 RMK AO2 SLP135 T02610128 10261 20183 51003
KSMF 091653Z 15011KT 10SM FEW180 BKN250 23/13 A2993 RMK AO2 SLP135 T02330128
KSMF 091553Z 16008KT 10SM SCT160 BKN250 21/13 A2993 RMK AO2 SLP135 T02060128
KSMF 091453Z 15011KT 10SM BKN160 BKN250 19/13 A2992 RMK AO2 SLP131 T01890128 53013
KSMF 091353Z 15011KT 10SM BKN160 BKN250 18/13 A2991 RMK AO2 SLP127 T01830128
KSMF 091253Z 16011KT 10SM FEW060 BKN150 BKN180 18/13 A2989 RMK AO2 SLP122 T01830128
KSMF 091153Z 16010KT 10SM BKN150 BKN200 19/13 A2988 RMK AO2 SLP119 T01890128 10217 20189 53002
KSMF 091053Z 15011KT 10SM SCT150 BKN200 19/13 A2988 RMK AO2 SLP118 T01940128
KSMF 090953Z 15010KT 10SM SCT150 BKN200 20/13 A2987 RMK AO2 SLP115 T02000128
KSMF 090853Z 14011KT 10SM SCT150 BKN200 19/12 A2988 RMK AO2 SLP117 T01940122 51002
KSMF 090753Z 16010KT 10SM SCT150 BKN200 20/12 A2988 RMK AO2 SLP117 T02000122 403500161
KSMF 090653Z 15012KT 10SM SCT150 SCT250 21/12 A2988 RMK AO2 SLP116 T02110122
KSMF 090553Z 16006KT 10SM SCT150 SCT250 22/12 A2987 RMK AO2 SLP115 T02170122 10350 20217 51008
KSMF 090453Z 17010KT 10SM FEW140 SCT250 23/12 A2987 RMK AO2 SLP115 T02280117
KSMF 090353Z 17012KT 10SM SCT140 BKN250 25/12 A2986 RMK AO2 SLP110 T02500117